createdAt,value
2018-03-11T00:00:07.730Z,97.69
2018-03-11T00:01:07.756Z,97.50
2018-03-11T00:02:07.778Z,96.94
2018-03-11T00:03:07.792Z,97.03
2018-03-11T00:04:07.818Z,97.31
2018-03-11T00:05:07.837Z,97.22
2018-03-11T00:06:07.864Z,97.03
2018-03-11T00:07:07.882Z,97.22
2018-03-11T00:08:07.903Z,97.22
2018-03-11T00:09:07.932Z,97.22
2018-03-11T00:10:07.953Z,97.22
2018-03-11T00:11:07.967Z,96.46
2018-03-11T00:12:07.991Z,96.55
2018-03-11T00:13:08.013Z,96.55
2018-03-11T00:14:08.032Z,96.41
2018-03-11T00:15:08.059Z,96.26
2018-03-11T00:16:08.079Z,96.79
2018-03-11T00:17:08.106Z,96.46
2018-03-11T00:18:08.124Z,96.51
2018-03-11T00:19:08.143Z,96.60
2018-03-11T00:20:08.168Z,96.31
2018-03-11T00:21:08.190Z,96.60
2018-03-11T00:22:08.207Z,96.36
2018-03-11T00:23:08.237Z,96.55
2018-03-11T00:24:08.252Z,95.70
2018-03-11T00:25:08.271Z,96.36
2018-03-11T00:26:08.297Z,96.46
2018-03-11T00:27:08.320Z,96.46
2018-03-11T00:28:08.339Z,96.46
2018-03-11T00:29:08.362Z,96.60
2018-03-11T00:30:08.382Z,96.22
2018-03-11T00:31:08.408Z,96.74
2018-03-11T00:32:08.427Z,96.74
2018-03-11T00:33:08.452Z,97.03
2018-03-11T00:34:08.470Z,97.31
2018-03-11T00:35:08.490Z,97.22
2018-03-11T00:36:08.518Z,97.22
2018-03-11T00:37:08.536Z,97.13
2018-03-11T00:38:08.559Z,97.22
2018-03-11T00:39:08.575Z,97.03
2018-03-11T00:40:08.605Z,97.22
2018-03-11T00:41:08.621Z,97.22
2018-03-11T00:42:08.645Z,97.13
2018-03-11T00:43:08.667Z,97.79
2018-03-11T00:44:08.687Z,97.79
2018-03-11T00:45:08.712Z,97.31
2018-03-11T00:46:08.730Z,97.79
2018-03-11T00:47:08.757Z,97.60
2018-03-11T00:48:08.774Z,97.31
2018-03-11T00:49:08.795Z,97.50
2018-03-11T00:50:08.820Z,97.98
2018-03-11T00:51:08.846Z,98.17
2018-03-11T00:52:08.868Z,97.69
2018-03-11T00:53:08.883Z,97.98
2018-03-11T00:54:08.909Z,97.79
2018-03-11T00:55:08.932Z,97.98
2018-03-11T00:56:08.954Z,97.88
2018-03-11T00:57:08.974Z,97.79
2018-03-11T00:58:08.998Z,97.98
2018-03-11T00:59:09.015Z,98.17
2018-03-11T01:00:09.040Z,98.27
2018-03-11T01:01:09.066Z,98.08
2018-03-11T01:02:09.083Z,97.88
2018-03-11T01:03:09.109Z,98.08
2018-03-11T01:04:09.128Z,97.98
2018-03-11T01:05:09.144Z,97.60
2018-03-11T01:06:09.171Z,97.69
2018-03-11T01:07:09.193Z,98.08
2018-03-11T01:08:09.218Z,98.27
2018-03-11T01:09:09.232Z,98.83
2018-03-11T01:10:09.258Z,99.02
2018-03-11T01:11:09.283Z,98.74
2018-03-11T01:12:09.299Z,98.83
2018-03-11T01:13:09.322Z,98.08
2018-03-11T01:14:09.347Z,98.36
2018-03-11T01:15:09.363Z,98.08
2018-03-11T01:16:09.388Z,98.13
2018-03-11T01:17:09.410Z,97.31
2018-03-11T01:18:09.433Z,97.31
2018-03-11T01:19:09.454Z,97.60
2018-03-11T01:20:09.476Z,97.41
2018-03-11T01:21:09.494Z,97.50
2018-03-11T01:22:09.518Z,97.98
2018-03-11T01:23:09.538Z,97.60
2018-03-11T01:24:09.565Z,98.17
2018-03-11T01:25:09.584Z,97.79
2018-03-11T01:26:09.607Z,98.08
2018-03-11T01:27:09.629Z,97.79
2018-03-11T01:28:09.651Z,98.36
2018-03-11T01:29:09.677Z,98.08
2018-03-11T01:30:09.695Z,98.36
2018-03-11T01:31:09.720Z,98.08
2018-03-11T01:32:09.737Z,98.17
2018-03-11T01:33:09.763Z,98.08
2018-03-11T01:34:09.786Z,97.88
2018-03-11T01:35:09.802Z,98.27
2018-03-11T01:36:09.840Z,98.41
2018-03-11T01:37:09.851Z,98.88
2018-03-11T01:38:09.872Z,98.83
2018-03-11T01:39:09.887Z,98.08
2018-03-11T01:40:09.916Z,98.41
2018-03-11T01:41:09.932Z,98.08
2018-03-11T01:42:09.952Z,98.17
2018-03-11T01:43:09.977Z,97.79
2018-03-11T01:44:10.001Z,98.27
2018-03-11T01:45:10.023Z,98.83
2018-03-11T01:46:10.045Z,99.02
2018-03-11T01:47:10.063Z,98.83
2018-03-11T01:48:10.087Z,98.74
2018-03-11T01:49:10.107Z,98.36
2018-03-11T01:50:10.133Z,98.17
2018-03-11T01:51:10.152Z,97.79
2018-03-11T01:52:10.172Z,98.08
2018-03-11T01:53:10.196Z,98.83
2018-03-11T01:54:10.215Z,98.36
2018-03-11T01:55:10.241Z,99.31
2018-03-11T01:56:10.272Z,99.02
2018-03-11T01:57:10.287Z,99.02
2018-03-11T01:58:10.306Z,99.02
2018-03-11T01:59:10.326Z,99.12
2018-03-11T02:00:10.377Z,98.65
2018-03-11T02:01:10.375Z,99.50
2018-03-11T02:02:10.390Z,99.02
2018-03-11T02:03:10.416Z,99.60
2018-03-11T02:04:10.435Z,99.31
2018-03-11T02:05:10.460Z,99.60
2018-03-11T02:06:10.479Z,99.31
2018-03-11T02:07:10.500Z,99.02
2018-03-11T02:08:10.527Z,99.31
2018-03-11T02:09:10.548Z,99.60
2018-03-11T02:10:10.565Z,98.79
2018-03-11T02:11:10.600Z,99.22
2018-03-11T02:12:10.620Z,99.02
2018-03-11T02:13:10.634Z,99.31
2018-03-11T02:14:10.655Z,98.65
2018-03-11T02:15:10.675Z,98.55
2018-03-11T02:16:10.705Z,98.65
2018-03-11T02:17:10.724Z,98.65
2018-03-11T02:18:10.744Z,98.74
2018-03-11T02:19:10.767Z,98.65
2018-03-11T02:20:10.793Z,99.31
2018-03-11T02:21:10.808Z,99.12
2018-03-11T02:22:10.828Z,99.02
2018-03-11T02:23:10.853Z,99.31
2018-03-11T02:24:10.880Z,99.36
2018-03-11T02:25:10.895Z,99.08
2018-03-11T02:26:10.922Z,99.02
2018-03-11T02:27:10.940Z,99.60
2018-03-11T02:28:10.969Z,99.22
2018-03-11T02:29:10.993Z,99.31
2018-03-11T02:30:11.011Z,98.74
2018-03-11T02:31:11.029Z,98.83
2018-03-11T02:32:11.058Z,98.55
2018-03-11T02:33:11.072Z,98.83
2018-03-11T02:34:11.096Z,98.60
2018-03-11T02:35:11.113Z,98.93
2018-03-11T02:36:11.139Z,99.08
2018-03-11T02:37:11.162Z,99.31
2018-03-11T02:38:11.189Z,98.60
2018-03-11T02:39:11.203Z,98.55
2018-03-11T02:40:11.227Z,98.79
2018-03-11T02:41:11.249Z,98.93
2018-03-11T02:42:11.271Z,99.02
2018-03-11T02:43:11.289Z,98.74
2018-03-11T02:44:11.316Z,98.50
2018-03-11T02:45:11.337Z,98.74
2018-03-11T02:46:11.361Z,98.46
2018-03-11T02:47:11.381Z,98.88
2018-03-11T02:48:11.403Z,98.32
2018-03-11T02:49:11.423Z,98.36
2018-03-11T02:50:11.451Z,98.22
2018-03-11T02:51:11.471Z,98.22
2018-03-11T02:52:11.489Z,97.84
2018-03-11T02:53:11.508Z,97.65
2018-03-11T02:54:11.532Z,97.65
2018-03-11T02:55:11.553Z,97.36
2018-03-11T02:56:11.577Z,97.36
2018-03-11T02:57:11.597Z,97.46
2018-03-11T02:58:11.619Z,97.84
2018-03-11T02:59:11.646Z,97.65
2018-03-11T03:00:11.662Z,97.65
2018-03-11T03:01:11.682Z,97.36
2018-03-11T03:02:11.712Z,97.74
2018-03-11T03:03:11.735Z,97.55
2018-03-11T03:04:11.754Z,97.55
2018-03-11T03:05:11.773Z,97.55
2018-03-11T03:06:11.792Z,98.03
2018-03-11T03:07:11.814Z,97.55
2018-03-11T03:08:11.838Z,97.36
2018-03-11T03:09:11.857Z,97.46
2018-03-11T03:10:11.878Z,97.74
2018-03-11T03:11:11.907Z,97.46
2018-03-11T03:12:11.929Z,97.55
2018-03-11T03:13:11.946Z,97.46
2018-03-11T03:14:11.975Z,97.36
2018-03-11T03:15:11.993Z,97.36
2018-03-11T03:16:12.012Z,97.65
2018-03-11T03:17:12.031Z,97.46
2018-03-11T03:18:12.060Z,97.93
2018-03-11T03:19:12.079Z,97.36
2018-03-11T03:20:12.103Z,97.74
2018-03-11T03:21:12.127Z,97.46
2018-03-11T03:22:12.142Z,97.46
2018-03-11T03:23:12.166Z,97.36
2018-03-11T03:24:12.187Z,97.36
2018-03-11T03:25:12.215Z,97.17
2018-03-11T03:26:12.233Z,97.36
2018-03-11T03:27:12.260Z,97.17
2018-03-11T03:28:12.275Z,97.74
2018-03-11T03:29:12.296Z,97.46
2018-03-11T03:30:12.327Z,97.36
2018-03-11T03:31:12.341Z,97.74
2018-03-11T03:32:12.370Z,97.17
2018-03-11T03:33:12.388Z,97.55
2018-03-11T03:34:12.406Z,97.84
2018-03-11T03:35:12.436Z,97.46
2018-03-11T03:36:12.452Z,97.27
2018-03-11T03:37:12.478Z,97.55
2018-03-11T03:38:12.496Z,97.17
2018-03-11T03:39:12.516Z,97.36
2018-03-11T03:40:12.540Z,96.98
2018-03-11T03:41:12.560Z,97.08
2018-03-11T03:42:12.589Z,97.08
2018-03-11T03:43:12.605Z,96.98
2018-03-11T03:44:12.630Z,97.36
2018-03-11T03:45:12.649Z,97.17
2018-03-11T03:46:12.670Z,96.89
2018-03-11T03:47:12.696Z,97.36
2018-03-11T03:48:12.720Z,97.17
2018-03-11T03:49:12.741Z,97.84
2018-03-11T03:50:12.764Z,96.89
2018-03-11T03:51:12.788Z,97.17
2018-03-11T03:52:12.804Z,97.08
2018-03-11T03:53:12.826Z,97.46
2018-03-11T03:54:12.851Z,97.17
2018-03-11T03:55:12.878Z,97.17
2018-03-11T03:56:12.894Z,97.36
2018-03-11T03:57:12.915Z,96.98
2018-03-11T03:58:12.943Z,96.79
2018-03-11T03:59:12.960Z,96.98
2018-03-11T04:00:12.989Z,96.98
2018-03-11T04:01:13.008Z,96.98
2018-03-11T04:02:13.033Z,96.98
2018-03-11T04:03:13.048Z,96.98
2018-03-11T04:04:13.075Z,96.79
2018-03-11T04:05:13.092Z,97.17
2018-03-11T04:06:13.118Z,96.89
2018-03-11T04:07:13.138Z,97.08
2018-03-11T04:08:13.166Z,97.17
2018-03-11T04:09:13.183Z,97.17
2018-03-11T04:10:13.204Z,97.36
2018-03-11T04:11:13.228Z,97.08
2018-03-11T04:12:13.249Z,97.27
2018-03-11T04:13:13.277Z,96.60
2018-03-11T04:14:13.293Z,97.46
2018-03-11T04:15:13.313Z,97.08
2018-03-11T04:16:13.339Z,97.08
2018-03-11T04:17:13.363Z,97.08
2018-03-11T04:18:13.382Z,97.17
2018-03-11T04:19:13.404Z,97.08
2018-03-11T04:20:13.423Z,97.08
2018-03-11T04:21:13.447Z,97.08
2018-03-11T04:22:13.468Z,97.08
2018-03-11T04:23:13.493Z,97.17
2018-03-11T04:24:13.515Z,96.51
2018-03-11T04:25:13.540Z,97.27
2018-03-11T04:26:13.558Z,97.27
2018-03-11T04:27:13.578Z,97.27
2018-03-11T04:28:13.603Z,97.17
2018-03-11T04:29:13.629Z,96.70
2018-03-11T04:30:13.648Z,96.51
2018-03-11T04:31:13.671Z,96.51
2018-03-11T04:32:13.694Z,96.79
2018-03-11T04:33:13.715Z,96.17
2018-03-11T04:34:13.740Z,96.70
2018-03-11T04:35:13.759Z,96.70
2018-03-11T04:36:13.777Z,96.89
2018-03-11T04:37:13.805Z,96.22
2018-03-11T04:38:13.827Z,96.51
2018-03-11T04:39:13.847Z,96.70
2018-03-11T04:40:13.868Z,96.36
2018-03-11T04:41:13.897Z,95.79
2018-03-11T04:42:13.913Z,96.36
2018-03-11T04:43:13.936Z,95.94
2018-03-11T04:44:13.956Z,96.17
2018-03-11T04:45:13.981Z,95.84
2018-03-11T04:46:14.003Z,96.03
2018-03-11T04:47:14.023Z,96.36
2018-03-11T04:48:14.050Z,96.08
2018-03-11T04:49:14.066Z,96.12
2018-03-11T04:50:14.091Z,96.08
2018-03-11T04:51:14.111Z,96.08
2018-03-11T04:52:14.131Z,96.03
2018-03-11T04:53:14.159Z,96.41
2018-03-11T04:54:14.181Z,96.46
2018-03-11T04:55:14.205Z,96.75
2018-03-11T04:56:14.226Z,96.55
2018-03-11T04:57:14.247Z,96.75
2018-03-11T04:58:14.266Z,96.70
2018-03-11T04:59:14.293Z,96.60
2018-03-11T05:00:14.315Z,96.36
2018-03-11T05:01:14.344Z,96.55
2018-03-11T05:02:14.356Z,96.31
2018-03-11T05:03:14.380Z,97.13
2018-03-11T05:04:14.405Z,97.31
2018-03-11T05:05:14.426Z,97.17
2018-03-11T05:06:14.450Z,97.27
2018-03-11T05:07:14.471Z,97.17
2018-03-11T05:08:14.494Z,96.55
2018-03-11T05:09:14.511Z,96.70
2018-03-11T05:10:14.567Z,96.75
2018-03-11T05:11:14.607Z,97.22
2018-03-11T05:12:14.584Z,96.60
2018-03-11T05:13:14.608Z,96.55
2018-03-11T05:14:14.628Z,97.17
2018-03-11T05:15:14.654Z,96.75
2018-03-11T05:16:14.675Z,96.22
2018-03-11T05:17:14.692Z,96.70
2018-03-11T05:18:14.718Z,96.70
2018-03-11T05:19:14.742Z,96.89
2018-03-11T05:20:14.761Z,96.79
2018-03-11T05:21:14.786Z,96.22
2018-03-11T05:22:14.805Z,96.70
2018-03-11T05:23:14.829Z,97.27
2018-03-11T05:24:14.868Z,97.55
2018-03-11T05:25:14.871Z,97.17
2018-03-11T05:26:14.900Z,97.17
2018-03-11T05:27:14.914Z,96.51
2018-03-11T05:28:14.938Z,96.51
2018-03-11T05:29:14.959Z,96.31
2018-03-11T05:30:14.987Z,96.79
2018-03-11T05:31:15.003Z,95.94
2018-03-11T05:32:15.030Z,96.12
2018-03-11T05:33:15.050Z,95.89
2018-03-11T05:34:15.074Z,96.27
2018-03-11T05:35:15.094Z,95.41
2018-03-11T05:36:15.115Z,95.41
2018-03-11T05:37:15.139Z,95.89
2018-03-11T05:38:15.163Z,96.17
2018-03-11T05:39:15.188Z,96.08
2018-03-11T05:40:15.208Z,96.27
2018-03-11T05:41:15.236Z,96.08
2018-03-11T05:42:15.248Z,96.17
2018-03-11T05:43:15.277Z,96.08
2018-03-11T05:44:15.297Z,95.98
2018-03-11T05:45:15.322Z,95.79
2018-03-11T05:46:15.343Z,95.60
2018-03-11T05:47:15.359Z,96.27
2018-03-11T05:48:15.388Z,95.89
2018-03-11T05:49:15.406Z,96.46
2018-03-11T05:50:15.432Z,96.27
2018-03-11T05:51:15.455Z,96.27
2018-03-11T05:52:15.477Z,96.65
2018-03-11T05:53:15.491Z,96.55
2018-03-11T05:54:15.522Z,96.84
2018-03-11T05:55:15.544Z,96.55
2018-03-11T05:56:15.566Z,96.55
2018-03-11T05:57:15.582Z,96.84
2018-03-11T05:58:15.610Z,96.27
2018-03-11T05:59:15.632Z,96.84
2018-03-11T06:00:15.660Z,96.94
2018-03-11T06:01:15.673Z,96.65
2018-03-11T06:02:15.698Z,96.65
2018-03-11T06:03:15.719Z,96.65
2018-03-11T06:04:15.749Z,96.08
2018-03-11T06:05:15.770Z,96.17
2018-03-11T06:06:15.791Z,95.70
2018-03-11T06:07:15.821Z,95.22
2018-03-11T06:08:15.831Z,95.51
2018-03-11T06:09:15.856Z,95.60
2018-03-11T06:10:15.879Z,95.32
2018-03-11T06:11:15.896Z,95.41
2018-03-11T06:12:15.925Z,95.70
2018-03-11T06:13:15.946Z,95.79
2018-03-11T06:14:15.967Z,95.70
2018-03-11T06:15:15.990Z,95.12
2018-03-11T06:16:16.018Z,95.12
2018-03-11T06:17:16.044Z,95.03
2018-03-11T06:18:16.058Z,94.93
2018-03-11T06:19:16.082Z,94.74
2018-03-11T06:20:16.101Z,94.93
2018-03-11T06:21:16.123Z,95.60
2018-03-11T06:22:16.150Z,95.60
2018-03-11T06:23:16.166Z,95.60
2018-03-11T06:24:16.191Z,95.79
2018-03-11T06:25:16.213Z,95.22
2018-03-11T06:26:16.239Z,96.17
2018-03-11T06:27:16.256Z,96.08
2018-03-11T06:28:16.287Z,96.17
2018-03-11T06:29:16.303Z,95.98
2018-03-11T06:30:16.325Z,96.17
2018-03-11T06:31:16.346Z,95.79
2018-03-11T06:32:16.372Z,96.36
2018-03-11T06:33:16.390Z,96.27
2018-03-11T06:34:16.418Z,95.98
2018-03-11T06:35:16.437Z,96.27
2018-03-11T06:36:16.465Z,95.79
2018-03-11T06:37:16.479Z,96.08
2018-03-11T06:38:16.501Z,96.27
2018-03-11T06:39:16.538Z,96.17
2018-03-11T06:40:16.554Z,96.17
2018-03-11T06:41:16.570Z,95.79
2018-03-11T06:42:16.594Z,95.98
2018-03-11T06:43:16.615Z,95.51
2018-03-11T06:44:16.639Z,95.60
2018-03-11T06:45:16.661Z,95.70
2018-03-11T06:46:16.681Z,95.98
2018-03-11T06:47:16.709Z,95.70
2018-03-11T06:48:16.730Z,95.51
2018-03-11T06:49:16.749Z,95.79
2018-03-11T06:50:16.774Z,95.41
2018-03-11T06:51:16.800Z,95.70
2018-03-11T06:52:16.825Z,94.74
2018-03-11T06:53:16.839Z,94.56
2018-03-11T06:54:16.864Z,95.60
2018-03-11T06:55:16.889Z,95.60
2018-03-11T06:56:16.914Z,95.12
2018-03-11T06:57:16.929Z,95.41
2018-03-11T06:58:16.958Z,95.51
2018-03-11T06:59:16.979Z,94.56
2018-03-11T07:00:16.998Z,94.93
2018-03-11T07:01:17.022Z,94.56
2018-03-11T07:02:17.043Z,94.93
2018-03-11T07:03:17.067Z,95.03
2018-03-11T07:04:17.090Z,94.65
2018-03-11T07:05:17.114Z,94.84
2018-03-11T07:06:17.139Z,94.56
2018-03-11T07:07:17.160Z,94.74
2018-03-11T07:08:17.197Z,94.84
2018-03-11T07:09:17.200Z,94.13
2018-03-11T07:10:17.224Z,94.13
2018-03-11T07:11:17.250Z,93.93
2018-03-11T07:12:17.272Z,93.46
2018-03-11T07:13:17.296Z,93.65
2018-03-11T07:14:17.319Z,93.55
2018-03-11T07:15:17.342Z,93.27
2018-03-11T07:16:17.442Z,93.17
2018-03-11T07:17:17.398Z,93.27
2018-03-11T07:18:17.406Z,93.08
2018-03-11T07:19:17.434Z,93.65
2018-03-11T07:20:17.459Z,93.46
2018-03-11T07:21:17.472Z,93.55
2018-03-11T07:22:17.497Z,93.17
2018-03-11T07:23:17.520Z,93.08
2018-03-11T07:24:17.541Z,93.46
2018-03-11T07:25:17.562Z,93.27
2018-03-11T07:26:17.588Z,92.50
2018-03-11T07:27:17.620Z,92.32
2018-03-11T07:28:17.632Z,92.50
2018-03-11T07:29:17.661Z,92.50
2018-03-11T07:30:17.698Z,92.60
2018-03-11T07:31:17.704Z,92.79
2018-03-11T07:32:17.731Z,92.32
2018-03-11T07:33:17.756Z,92.03
2018-03-11T07:34:17.769Z,91.94
2018-03-11T07:35:17.790Z,91.46
2018-03-11T07:36:17.820Z,91.94
2018-03-11T07:37:17.837Z,91.69
2018-03-11T07:38:17.909Z,91.79
2018-03-11T07:39:17.888Z,91.79
2018-03-11T07:40:17.915Z,91.13
2018-03-11T07:41:17.931Z,90.93
2018-03-11T07:42:17.955Z,90.64
2018-03-11T07:43:17.980Z,90.36
2018-03-11T07:44:18.001Z,90.64
2018-03-11T07:45:18.023Z,90.08
2018-03-11T07:46:18.046Z,89.93
2018-03-11T07:47:18.075Z,89.45
2018-03-11T07:48:18.095Z,89.07
2018-03-11T07:49:18.126Z,89.36
2018-03-11T07:50:18.140Z,88.98
2018-03-11T07:51:18.165Z,88.59
2018-03-11T07:52:18.189Z,88.50
2018-03-11T07:53:18.215Z,88.59
2018-03-11T07:54:18.239Z,88.02
2018-03-11T07:55:18.255Z,87.54
2018-03-11T07:56:18.284Z,87.35
2018-03-11T07:57:18.309Z,87.78
2018-03-11T07:58:18.328Z,87.87
2018-03-11T07:59:18.350Z,87.21
2018-03-11T08:00:18.377Z,86.54
2018-03-11T08:01:18.395Z,86.82
2018-03-11T08:02:18.425Z,86.63
2018-03-11T08:03:18.451Z,87.11
2018-03-11T08:04:18.470Z,86.54
2018-03-11T08:05:18.491Z,86.82
2018-03-11T08:06:18.522Z,86.35
2018-03-11T08:07:18.554Z,86.63
2018-03-11T08:08:18.566Z,86.73
2018-03-11T08:09:18.591Z,86.63
2018-03-11T08:10:18.615Z,86.82
2018-03-11T08:11:18.643Z,86.44
2018-03-11T08:12:18.660Z,86.44
2018-03-11T08:13:18.688Z,86.44
2018-03-11T08:14:18.710Z,86.10
2018-03-11T08:15:18.740Z,86.30
2018-03-11T08:16:18.761Z,85.97
2018-03-11T08:17:18.783Z,86.35
2018-03-11T08:18:18.812Z,86.63
2018-03-11T08:19:18.829Z,86.30
2018-03-11T08:20:18.874Z,86.77
2018-03-11T08:21:18.882Z,86.10
2018-03-11T08:22:18.909Z,86.01
2018-03-11T08:23:18.928Z,85.44
2018-03-11T08:24:18.955Z,84.86
2018-03-11T08:25:18.982Z,84.58
2018-03-11T08:26:19.006Z,83.81
2018-03-11T08:27:19.026Z,84.14
2018-03-11T08:28:19.058Z,83.76
2018-03-11T08:29:19.076Z,83.67
2018-03-11T08:30:19.104Z,84.05
2018-03-11T08:31:19.131Z,83.91
2018-03-11T08:32:19.147Z,84.20
2018-03-11T08:33:19.178Z,84.39
2018-03-11T08:34:19.196Z,85.05
2018-03-11T08:35:19.231Z,85.34
2018-03-11T08:36:19.249Z,85.15
2018-03-11T08:37:19.280Z,85.44
2018-03-11T08:38:19.298Z,84.96
2018-03-11T08:39:19.325Z,85.05
2018-03-11T08:40:19.348Z,85.15
2018-03-11T08:41:19.374Z,85.63
2018-03-11T08:42:19.401Z,84.96
2018-03-11T08:43:19.418Z,84.77
2018-03-11T08:44:19.448Z,85.05
2018-03-11T08:45:19.468Z,84.96
2018-03-11T08:46:19.499Z,84.77
2018-03-11T08:47:19.521Z,85.15
2018-03-11T08:48:19.557Z,85.15
2018-03-11T08:49:19.581Z,85.63
2018-03-11T08:50:19.595Z,85.44
2018-03-11T08:51:19.625Z,85.44
2018-03-11T08:52:19.643Z,85.25
2018-03-11T08:53:19.667Z,86.10
2018-03-11T08:54:19.695Z,85.91
2018-03-11T08:55:19.717Z,85.44
2018-03-11T08:56:19.741Z,84.77
2018-03-11T08:57:19.767Z,84.67
2018-03-11T08:58:19.797Z,84.81
2018-03-11T08:59:19.844Z,84.62
2018-03-11T09:00:19.839Z,84.39
2018-03-11T09:01:19.866Z,84.48
2018-03-11T09:02:19.885Z,84.43
2018-03-11T09:03:19.916Z,84.33
2018-03-11T09:04:19.944Z,84.48
2018-03-11T09:05:19.969Z,84.14
2018-03-11T09:06:19.992Z,85.19
2018-03-11T09:07:20.011Z,84.72
2018-03-11T09:08:20.040Z,84.43
2018-03-11T09:09:20.062Z,83.86
2018-03-11T09:10:20.090Z,84.05
2018-03-11T09:11:20.118Z,83.47
2018-03-11T09:12:20.146Z,83.38
2018-03-11T09:13:20.163Z,83.47
2018-03-11T09:14:20.190Z,83.86
2018-03-11T09:15:20.214Z,83.95
2018-03-11T09:16:20.236Z,83.95
2018-03-11T09:17:20.262Z,83.76
2018-03-11T09:18:20.290Z,83.76
2018-03-11T09:19:20.310Z,84.43
2018-03-11T09:20:20.339Z,83.95
2018-03-11T09:21:20.360Z,83.18
2018-03-11T09:22:20.385Z,82.90
2018-03-11T09:23:20.414Z,83.47
2018-03-11T09:24:20.437Z,83.23
2018-03-11T09:25:20.461Z,83.42
2018-03-11T09:26:20.484Z,83.23
2018-03-11T09:27:20.509Z,82.94
2018-03-11T09:28:20.551Z,82.94
2018-03-11T09:29:20.561Z,83.04
2018-03-11T09:30:20.589Z,82.75
2018-03-11T09:31:20.617Z,83.13
2018-03-11T09:32:20.639Z,83.04
2018-03-11T09:33:20.662Z,83.23
2018-03-11T09:34:20.685Z,82.56
2018-03-11T09:35:20.709Z,82.65
2018-03-11T09:36:20.749Z,82.28
2018-03-11T09:37:20.769Z,82.18
2018-03-11T09:38:20.784Z,82.28
2018-03-11T09:39:20.814Z,82.37
2018-03-11T09:40:20.835Z,82.46
2018-03-11T09:41:20.859Z,82.84
2018-03-11T09:42:20.885Z,82.65
2018-03-11T09:43:20.922Z,82.75
2018-03-11T09:44:20.939Z,82.65
2018-03-11T09:45:20.962Z,82.08
2018-03-11T09:46:20.991Z,82.31
2018-03-11T09:47:21.016Z,82.18
2018-03-11T09:48:21.039Z,81.89
2018-03-11T09:49:21.074Z,81.60
2018-03-11T09:50:21.088Z,81.84
2018-03-11T09:51:21.126Z,81.32
2018-03-11T09:52:21.139Z,81.60
2018-03-11T09:53:21.164Z,81.60
2018-03-11T09:54:21.193Z,81.60
2018-03-11T09:55:21.215Z,81.70
2018-03-11T09:56:21.238Z,82.31
2018-03-11T09:57:21.263Z,81.74
2018-03-11T09:58:21.291Z,82.51
2018-03-11T09:59:21.313Z,81.26
2018-03-11T10:00:21.343Z,81.45
2018-03-11T10:01:21.364Z,80.59
2018-03-11T10:02:21.393Z,80.79
2018-03-11T10:03:21.415Z,80.98
2018-03-11T10:04:21.444Z,80.21
2018-03-11T10:05:21.468Z,80.16
2018-03-11T10:06:21.494Z,80.44
2018-03-11T10:07:21.518Z,79.96
2018-03-11T10:08:21.550Z,79.87
2018-03-11T10:09:21.573Z,79.20
2018-03-11T10:10:21.594Z,79.10
2018-03-11T10:11:21.625Z,79.29
2018-03-11T10:12:21.643Z,78.72
2018-03-11T10:13:21.674Z,78.38
2018-03-11T10:14:21.698Z,78.95
2018-03-11T10:15:21.723Z,78.57
2018-03-11T10:16:21.805Z,78.95
2018-03-11T10:17:21.776Z,78.76
2018-03-11T10:18:21.802Z,78.38
2018-03-11T10:19:21.824Z,78.86
2018-03-11T10:20:21.854Z,79.05
2018-03-11T10:21:21.882Z,78.38
2018-03-11T10:22:21.906Z,78.95
2018-03-11T10:23:21.932Z,77.70
2018-03-11T10:24:21.957Z,77.90
2018-03-11T10:25:21.992Z,78.38
2018-03-11T10:26:22.007Z,77.23
2018-03-11T10:27:22.033Z,77.70
2018-03-11T10:28:22.074Z,77.70
2018-03-11T10:29:22.088Z,77.51
2018-03-11T10:30:22.128Z,77.13
2018-03-11T10:31:22.145Z,77.42
2018-03-11T10:32:22.167Z,77.23
2018-03-11T10:33:22.191Z,77.13
2018-03-11T10:34:22.217Z,77.13
2018-03-11T10:35:22.242Z,77.13
2018-03-11T10:36:22.272Z,77.04
2018-03-11T10:37:22.292Z,77.13
2018-03-11T10:38:22.323Z,76.56
2018-03-11T10:39:22.347Z,76.56
2018-03-11T10:40:22.375Z,76.79
2018-03-11T10:41:22.402Z,76.12
2018-03-11T10:42:22.426Z,75.45
2018-03-11T10:43:22.483Z,75.48
2018-03-11T10:44:22.481Z,74.62
2018-03-11T10:45:22.505Z,74.52
2018-03-11T10:46:22.534Z,74.72
2018-03-11T10:47:22.560Z,74.62
2018-03-11T10:48:22.586Z,73.38
2018-03-11T10:49:22.607Z,73.47
2018-03-11T10:50:22.641Z,73.41
2018-03-11T10:51:22.665Z,73.57
2018-03-11T10:52:22.695Z,72.84
2018-03-11T10:53:22.726Z,72.74
2018-03-11T10:54:22.741Z,73.32
2018-03-11T10:55:22.776Z,72.42
2018-03-11T10:56:22.796Z,72.42
2018-03-11T10:57:22.823Z,71.59
2018-03-11T10:58:22.850Z,72.45
2018-03-11T10:59:22.877Z,70.83
2018-03-11T11:00:22.911Z,70.76
2018-03-11T11:01:22.931Z,70.57
2018-03-11T11:02:22.956Z,68.98
2018-03-11T11:03:22.985Z,67.25
2018-03-11T11:04:23.014Z,64.92
2018-03-11T11:05:23.043Z,63.32
2018-03-11T11:06:23.066Z,61.33
2018-03-11T11:07:23.096Z,59.49
2018-03-11T11:08:23.144Z,55.63
2018-03-11T11:09:23.148Z,52.67
2018-03-11T11:10:23.176Z,50.69
2018-03-11T11:11:23.207Z,47.84
2018-03-11T11:12:23.238Z,45.18
2018-03-11T11:13:23.262Z,44.02
2018-03-11T11:14:23.293Z,42.59
2018-03-11T11:15:23.319Z,42.20
2018-03-11T11:16:23.353Z,42.96
2018-03-11T11:17:23.383Z,43.32
2018-03-11T11:18:23.415Z,42.97
2018-03-11T11:19:23.482Z,43.54
2018-03-11T11:20:23.464Z,43.15
2018-03-11T11:21:23.503Z,43.24
2018-03-11T11:22:23.533Z,43.90
2018-03-11T11:23:23.559Z,44.75
2018-03-11T11:24:23.594Z,45.23
2018-03-11T11:25:23.619Z,43.71
2018-03-11T11:26:23.649Z,44.46
2018-03-11T11:27:23.685Z,44.36
2018-03-11T11:28:23.718Z,44.43
2018-03-11T11:29:23.739Z,45.79
2018-03-11T11:30:23.774Z,46.06
2018-03-11T11:31:23.805Z,46.06
2018-03-11T11:32:23.840Z,47.29
2018-03-11T11:33:23.868Z,46.27
2018-03-11T11:34:23.899Z,44.82
2018-03-11T11:35:23.932Z,44.07
2018-03-11T11:36:23.960Z,45.09
2018-03-11T11:37:23.994Z,46.73
2018-03-11T11:38:24.024Z,46.75
2018-03-11T11:39:24.053Z,46.83
2018-03-11T11:40:24.085Z,49.07
2018-03-11T11:41:24.116Z,52.18
2018-03-11T11:42:24.150Z,55.23
2018-03-11T11:43:24.190Z,57.10
2018-03-11T11:44:24.225Z,59.02
2018-03-11T11:45:24.245Z,59.19
2018-03-11T11:46:24.272Z,61.36
2018-03-11T11:47:24.312Z,61.65
2018-03-11T11:48:24.352Z,59.60
2018-03-11T11:49:24.371Z,59.66
2018-03-11T11:50:24.404Z,61.58
2018-03-11T11:51:24.438Z,62.68
2018-03-11T11:52:24.465Z,63.83
2018-03-11T11:53:24.487Z,64.59
2018-03-11T11:54:24.530Z,64.59
2018-03-11T11:55:24.552Z,64.89
2018-03-11T11:56:24.583Z,65.43
2018-03-11T11:57:24.613Z,66.00
2018-03-11T11:58:24.644Z,66.58
2018-03-11T11:59:24.673Z,67.12
2018-03-11T12:00:24.707Z,67.22
2018-03-11T12:01:24.727Z,66.74
2018-03-11T12:02:24.765Z,66.67
2018-03-11T12:03:24.796Z,65.91
2018-03-11T12:04:24.870Z,64.40
2018-03-11T12:05:24.903Z,61.36
2018-03-11T12:06:24.880Z,56.25
2018-03-11T12:07:24.907Z,53.94
2018-03-11T12:08:24.945Z,52.25
2018-03-11T12:09:24.967Z,49.70
2018-03-11T12:10:24.995Z,47.16
2018-03-11T12:11:25.026Z,44.02
2018-03-11T12:12:25.056Z,42.97
2018-03-11T12:13:25.089Z,40.23
2018-03-11T12:14:25.117Z,38.40
2018-03-11T12:15:25.149Z,39.04
2018-03-11T12:16:25.178Z,39.61
2018-03-11T12:17:25.254Z,41.00
2018-03-11T12:18:25.241Z,43.74
2018-03-11T12:19:25.273Z,46.13
2018-03-11T12:20:25.301Z,47.82
2018-03-11T12:21:25.339Z,49.63
2018-03-11T12:22:25.367Z,52.08
2018-03-11T12:23:25.396Z,51.79
2018-03-11T12:24:25.431Z,52.30
2018-03-11T12:25:25.458Z,51.46
2018-03-11T12:26:25.487Z,49.84
2018-03-11T12:27:25.523Z,48.06
2018-03-11T12:28:25.551Z,44.77
2018-03-11T12:29:25.620Z,42.07
2018-03-11T12:30:25.620Z,44.80
2018-03-11T12:31:25.653Z,47.14
2018-03-11T12:32:25.680Z,50.37
2018-03-11T12:33:25.710Z,50.95
2018-03-11T12:34:25.790Z,50.98
2018-03-11T12:35:25.778Z,50.66
2018-03-11T12:36:25.807Z,50.66
2018-03-11T12:37:25.836Z,51.72
2018-03-11T12:38:25.867Z,52.30
2018-03-11T12:39:25.903Z,52.56
2018-03-11T12:40:25.929Z,51.75
2018-03-11T12:41:25.960Z,48.18
2018-03-11T12:42:25.996Z,43.80
2018-03-11T12:43:26.025Z,41.60
2018-03-11T12:44:26.057Z,43.98
2018-03-11T12:45:26.089Z,44.60
2018-03-11T12:46:26.130Z,47.07
2018-03-11T12:47:26.158Z,47.19
2018-03-11T12:48:26.184Z,48.30
2018-03-11T12:49:26.222Z,50.37
2018-03-11T12:50:26.260Z,51.31
2018-03-11T12:51:26.284Z,53.11
2018-03-11T12:52:26.316Z,54.08